createdAt,value
2018-01-18T00:02:25.129Z,19.47
2018-01-18T00:04:53.995Z,9.20
2018-01-18T00:07:22.697Z,9.40
2018-01-18T00:09:51.712Z,12.97
2018-01-18T00:12:20.380Z,8.17
2018-01-18T00:14:48.836Z,10.70
2018-01-18T00:17:17.350Z,8.03
2018-01-18T00:19:46.001Z,14.73
2018-01-18T00:22:14.513Z,6.63
2018-01-18T00:24:43.049Z,9.47
2018-01-18T00:27:11.540Z,12.37
2018-01-18T00:29:40.609Z,13.37
2018-01-18T00:32:09.249Z,16.63
2018-01-18T00:34:37.937Z,16.60
2018-01-18T00:37:06.677Z,18.67
2018-01-18T00:39:36.056Z,11.43
2018-01-18T00:42:04.604Z,17.40
2018-01-18T00:44:33.457Z,13.50
2018-01-18T00:47:01.976Z,13.50
2018-01-18T00:49:30.646Z,13.40
2018-01-18T00:51:59.368Z,11.70
2018-01-18T00:54:28.025Z,17.43
2018-01-18T00:56:56.731Z,10.37
2018-01-18T00:59:25.396Z,11.90
2018-01-18T01:01:53.884Z,13.17
2018-01-18T01:04:22.348Z,9.53
2018-01-18T01:06:51.059Z,14.87
2018-01-18T01:09:19.703Z,8.87
2018-01-18T01:11:48.597Z,11.13
2018-01-18T01:14:17.069Z,8.37
2018-01-18T01:16:45.553Z,6.90
2018-01-18T01:19:14.057Z,13.20
2018-01-18T01:21:42.588Z,10.93
2018-01-18T01:24:11.405Z,7.37
2018-01-18T01:26:40.501Z,5.80
2018-01-18T01:29:09.176Z,5.03
2018-01-18T01:31:37.712Z,6.53
2018-01-18T01:34:06.219Z,5.47
2018-01-18T01:36:34.893Z,6.37
2018-01-18T01:39:03.629Z,8.37
2018-01-18T01:41:32.276Z,8.37
2018-01-18T01:44:00.866Z,12.33
2018-01-18T01:46:29.446Z,13.30
2018-01-18T01:48:57.933Z,7.60
2018-01-18T01:51:26.589Z,9.60
2018-01-18T01:53:55.279Z,11.53
2018-01-18T01:56:23.984Z,6.87
2018-01-18T01:58:52.564Z,10.80
2018-01-18T02:01:21.310Z,6.67
2018-01-18T02:03:50.184Z,7.47
2018-01-18T02:06:18.956Z,7.20
2018-01-18T02:08:47.565Z,13.00
2018-01-18T02:11:16.257Z,8.27
2018-01-18T02:13:45.132Z,11.73
2018-01-18T02:16:13.815Z,8.97
2018-01-18T02:18:42.501Z,10.67
2018-01-18T02:21:11.050Z,8.40
2018-01-18T02:23:39.953Z,13.80
2018-01-18T02:26:09.531Z,7.97
2018-01-18T02:28:38.068Z,13.30
2018-01-18T02:31:06.588Z,12.10
2018-01-18T02:33:35.072Z,13.87
2018-01-18T02:36:03.562Z,11.03
2018-01-18T02:38:32.037Z,13.83
2018-01-18T02:41:00.912Z,10.33
2018-01-18T02:43:29.430Z,19.43
2018-01-18T02:45:58.264Z,8.43
2018-01-18T02:48:27.489Z,11.43
2018-01-18T02:50:56.264Z,14.80
2018-01-18T02:53:24.892Z,8.10
2018-01-18T02:55:53.432Z,7.47
2018-01-18T02:58:21.978Z,14.03
2018-01-18T03:00:50.467Z,15.37
2018-01-18T03:03:19.563Z,9.00
2018-01-18T03:05:48.197Z,16.40
2018-01-18T03:08:16.712Z,15.37
2018-01-18T03:10:45.334Z,10.60
2018-01-18T03:13:14.048Z,16.27
2018-01-18T03:15:42.708Z,14.90
2018-01-18T03:18:11.196Z,12.53
2018-01-18T03:20:39.898Z,12.27
2018-01-18T03:23:08.550Z,17.07
2018-01-18T03:25:44.229Z,17.60
2018-01-18T03:28:13.077Z,16.83
2018-01-18T03:30:42.421Z,12.73
2018-01-18T03:33:11.346Z,16.40
2018-01-18T03:35:39.973Z,18.13
2018-01-18T03:38:08.603Z,15.80
2018-01-18T03:40:37.150Z,11.77
2018-01-18T03:43:05.829Z,16.43
2018-01-18T03:45:34.542Z,18.20
2018-01-18T03:48:03.104Z,22.37
2018-01-18T03:50:31.761Z,18.67
2018-01-18T03:53:00.400Z,15.73
2018-01-18T03:55:29.071Z,10.80
2018-01-18T03:57:57.972Z,14.17
2018-01-18T04:00:26.689Z,9.23
2018-01-18T04:02:55.677Z,13.50
2018-01-18T04:05:24.216Z,17.50
2018-01-18T04:07:52.832Z,14.30
2018-01-18T04:10:21.432Z,20.00
2018-01-18T04:12:50.253Z,15.43
2018-01-18T04:15:18.964Z,23.20
2018-01-18T04:17:47.593Z,13.53
2018-01-18T04:20:17.033Z,16.50
2018-01-18T04:22:45.716Z,9.87
2018-01-18T04:25:14.207Z,9.60
2018-01-18T04:27:42.831Z,19.37
2018-01-18T04:30:11.547Z,12.53
2018-01-18T04:32:40.228Z,13.73
2018-01-18T04:35:08.861Z,12.00
2018-01-18T04:37:37.711Z,12.80
2018-01-18T04:40:06.414Z,7.73
2018-01-18T04:42:35.081Z,13.17
2018-01-18T04:45:03.637Z,11.13
2018-01-18T04:47:32.246Z,11.93
2018-01-18T04:50:00.733Z,11.30
2018-01-18T04:52:29.658Z,10.23
2018-01-18T04:54:58.518Z,16.10
2018-01-18T04:57:27.291Z,10.27
2018-01-18T04:59:55.816Z,12.33
2018-01-18T05:05:20.288Z,14.80
2018-01-18T05:07:48.763Z,13.30
2018-01-18T05:10:17.256Z,8.10
2018-01-18T05:12:45.939Z,13.33
2018-01-18T05:15:14.404Z,13.20
2018-01-18T05:17:43.244Z,6.40
2018-01-18T05:20:11.851Z,8.40
2018-01-18T05:22:40.479Z,8.60
2018-01-18T05:25:09.682Z,11.47
2018-01-18T05:27:38.455Z,10.27
2018-01-18T05:30:07.008Z,14.20
2018-01-18T05:32:37.125Z,9.17
2018-01-18T05:35:05.893Z,11.63
2018-01-18T05:37:35.108Z,11.53
2018-01-18T05:40:04.276Z,12.17
2018-01-18T05:42:36.168Z,10.50
2018-01-18T05:45:05.713Z,11.83
2018-01-18T05:47:34.185Z,19.83
2018-01-18T05:50:03.150Z,14.20
2018-01-18T05:52:31.763Z,11.90
2018-01-18T05:55:02.632Z,9.83
2018-01-18T05:57:32.892Z,14.07
2018-01-18T06:00:02.598Z,12.00
2018-01-18T06:02:31.812Z,22.17
2018-01-18T06:05:00.754Z,18.50
2018-01-18T06:07:29.277Z,9.63
2018-01-18T06:09:57.857Z,14.50
2018-01-18T06:12:26.448Z,17.37
2018-01-18T06:14:54.954Z,16.00
2018-01-18T06:17:23.705Z,17.17
2018-01-18T06:19:52.304Z,12.37
2018-01-18T06:22:21.555Z,20.40
2018-01-18T06:24:50.368Z,18.97
2018-01-18T06:27:19.225Z,17.13
2018-01-18T06:29:47.926Z,24.43
2018-01-18T06:32:16.675Z,18.03
2018-01-18T06:34:45.299Z,19.60
2018-01-18T06:37:14.045Z,16.07
2018-01-18T06:39:45.743Z,18.60
2018-01-18T06:42:14.258Z,20.70
2018-01-18T06:44:42.958Z,19.03
2018-01-18T06:47:11.582Z,18.17
2018-01-18T06:49:40.061Z,27.47
2018-01-18T06:52:08.547Z,14.87
2018-01-18T06:54:37.097Z,17.27
2018-01-18T06:57:05.721Z,17.60
2018-01-18T06:59:34.229Z,19.50
2018-01-18T07:02:02.877Z,15.00
2018-01-18T07:04:31.385Z,17.03
2018-01-18T07:06:59.914Z,16.07
2018-01-18T07:09:28.363Z,13.63
2018-01-18T07:11:57.000Z,14.30
2018-01-18T07:14:25.711Z,12.47
2018-01-18T07:16:54.189Z,25.63
2018-01-18T07:19:22.828Z,13.67
2018-01-18T07:21:51.344Z,19.00
2018-01-18T07:24:19.812Z,22.37
2018-01-18T07:26:48.295Z,19.43
2018-01-18T07:29:17.482Z,18.33
2018-01-18T07:31:46.089Z,13.07
2018-01-18T07:34:14.760Z,16.77
2018-01-18T07:36:43.457Z,18.97
2018-01-18T07:39:11.912Z,9.83
2018-01-18T07:41:41.115Z,16.87
2018-01-18T07:44:09.568Z,16.53
2018-01-18T07:46:38.188Z,17.33
2018-01-18T07:49:06.947Z,12.50
2018-01-18T07:51:35.423Z,17.87
2018-01-18T07:54:03.906Z,14.43
2018-01-18T07:56:32.572Z,14.40
2018-01-18T07:59:01.196Z,17.30
2018-01-18T08:01:29.671Z,15.03
2018-01-18T08:04:33.780Z,16.33
2018-01-18T08:07:02.874Z,18.47
2018-01-18T08:09:31.605Z,12.53
2018-01-18T08:12:00.323Z,13.60
2018-01-18T08:14:28.800Z,17.43
2018-01-18T08:16:57.381Z,22.53
2018-01-18T08:19:25.856Z,16.70
2018-01-18T08:21:54.441Z,11.23
2018-01-18T08:24:22.908Z,11.07
2018-01-18T08:26:51.606Z,9.70
2018-01-18T08:29:21.175Z,11.20
2018-01-18T08:31:49.674Z,16.97
2018-01-18T08:34:18.885Z,17.80
2018-01-18T08:36:47.579Z,12.00
2018-01-18T08:39:16.263Z,13.80
2018-01-18T08:41:44.950Z,15.20
2018-01-18T08:44:13.581Z,12.27
2018-01-18T08:46:42.292Z,14.73
2018-01-18T08:49:10.724Z,11.80
2018-01-18T08:51:39.257Z,16.47
2018-01-18T08:54:07.767Z,15.87
2018-01-18T08:56:36.448Z,4.93
2018-01-18T08:59:05.023Z,11.60
2018-01-18T09:01:33.547Z,9.03
2018-01-18T09:04:02.228Z,8.90
2018-01-18T09:06:30.784Z,10.00
2018-01-18T09:08:59.655Z,10.37
2018-01-18T09:11:28.306Z,7.30
2018-01-18T09:13:56.788Z,8.90
2018-01-18T09:16:25.645Z,9.17
2018-01-18T09:18:54.288Z,8.37
2018-01-18T09:21:22.897Z,7.50
2018-01-18T09:23:51.564Z,9.10
2018-01-18T09:26:20.244Z,6.90
2018-01-18T09:28:48.757Z,7.67
2018-01-18T09:31:17.414Z,17.33
2018-01-18T09:33:46.462Z,8.50
2018-01-18T09:36:15.020Z,12.43
2018-01-18T09:38:44.564Z,8.50
2018-01-18T09:41:13.632Z,11.70
2018-01-18T09:43:42.093Z,7.33
2018-01-18T09:46:10.740Z,8.73
2018-01-18T09:48:39.253Z,5.07
2018-01-18T09:51:07.945Z,5.80
2018-01-18T09:53:36.650Z,8.00
2018-01-18T09:56:05.136Z,8.20
2018-01-18T09:58:33.744Z,10.40
2018-01-18T10:01:02.692Z,2.93
2018-01-18T10:03:31.300Z,5.17
2018-01-18T10:06:00.055Z,3.80
2018-01-18T10:08:28.670Z,5.73
2018-01-18T10:10:57.234Z,3.40
2018-01-18T10:13:25.905Z,5.23
2018-01-18T10:15:55.427Z,4.40
2018-01-18T10:18:24.053Z,3.40
2018-01-18T10:20:52.748Z,2.40
2018-01-18T10:23:21.392Z,2.83
2018-01-18T10:25:49.894Z,7.30
2018-01-18T10:28:18.589Z,2.33
2018-01-18T10:30:47.527Z,2.40
2018-01-18T10:33:16.264Z,2.27
2018-01-18T10:35:44.868Z,6.33
2018-01-18T10:38:13.367Z,2.27
2018-01-18T10:40:42.267Z,1.73
2018-01-18T10:43:10.987Z,3.10
2018-01-18T10:45:39.612Z,4.23
2018-01-18T10:48:08.270Z,2.30
2018-01-18T10:50:37.031Z,3.07
2018-01-18T10:53:06.085Z,1.97
2018-01-18T10:55:34.614Z,3.47
2018-01-18T10:58:03.250Z,4.20
2018-01-18T11:00:31.827Z,2.80
2018-01-18T11:03:00.404Z,1.77
2018-01-18T11:05:29.080Z,5.50
2018-01-18T11:07:57.551Z,2.50
2018-01-18T11:10:26.126Z,3.10
2018-01-18T11:12:54.720Z,1.80
2018-01-18T11:15:23.588Z,2.93
2018-01-18T11:17:52.141Z,4.50
2018-01-18T11:20:27.336Z,3.17
2018-01-18T11:22:55.800Z,4.70
2018-01-18T11:25:24.308Z,3.07
2018-01-18T11:27:53.012Z,3.83
2018-01-18T11:30:21.704Z,1.83
2018-01-18T11:32:50.196Z,5.53
2018-01-18T11:35:18.854Z,3.23
2018-01-18T11:37:47.368Z,1.90
2018-01-18T11:40:15.886Z,2.10
2018-01-18T11:42:44.734Z,3.13
2018-01-18T11:45:13.284Z,2.57
2018-01-18T11:47:41.808Z,4.83
2018-01-18T11:50:10.670Z,1.60
2018-01-18T11:52:39.187Z,3.50
2018-01-18T11:55:07.934Z,1.77
2018-01-18T11:57:36.593Z,3.40
2018-01-18T12:00:05.075Z,3.23
2018-01-18T12:02:34.019Z,1.77
2018-01-18T12:05:02.468Z,1.50
2018-01-18T12:07:30.978Z,1.43
2018-01-18T12:09:59.408Z,1.63
2018-01-18T12:12:28.118Z,3.90
2018-01-18T12:14:57.167Z,2.17
2018-01-18T12:17:25.716Z,5.27
2018-01-18T12:19:54.152Z,1.40
2018-01-18T12:22:22.684Z,1.20
2018-01-18T12:24:51.384Z,4.40
2018-01-18T12:27:20.241Z,3.07
2018-01-18T12:29:51.802Z,1.63
2018-01-18T12:32:20.366Z,1.10
2018-01-18T12:34:48.932Z,1.47
2018-01-18T12:37:17.496Z,1.13
2018-01-18T12:39:46.105Z,2.60
2018-01-18T12:42:15.208Z,3.17
2018-01-18T12:44:43.717Z,1.20
2018-01-18T12:47:12.352Z,2.13
2018-01-18T12:49:41.279Z,4.00
2018-01-18T12:52:09.955Z,1.97
2018-01-18T12:54:38.719Z,8.10
2018-01-18T12:57:07.349Z,2.03
2018-01-18T12:59:35.890Z,8.70
2018-01-18T13:02:04.483Z,1.70
2018-01-18T13:04:32.977Z,1.43
2018-01-18T13:07:02.294Z,1.80
2018-01-18T13:09:32.005Z,6.03
2018-01-18T13:12:00.535Z,3.60
2018-01-18T13:14:28.995Z,1.27
2018-01-18T13:16:57.634Z,8.53
2018-01-18T13:19:26.254Z,1.50
2018-01-18T13:21:55.017Z,1.70
2018-01-18T13:24:23.709Z,2.17
2018-01-18T13:26:52.409Z,5.23
2018-01-18T13:29:21.145Z,2.43
2018-01-18T13:31:49.940Z,1.87
2018-01-18T13:34:18.595Z,1.73
2018-01-18T13:36:47.546Z,1.93
2018-01-18T13:39:17.166Z,2.90
2018-01-18T13:41:45.922Z,3.37
2018-01-18T13:44:15.753Z,2.80
2018-01-18T13:46:44.515Z,3.13
2018-01-18T13:49:13.233Z,1.30
2018-01-18T13:51:42.819Z,1.80
2018-01-18T13:54:11.654Z,4.60
2018-01-18T13:56:40.187Z,4.43
2018-01-18T13:59:08.688Z,4.13
2018-01-18T14:01:37.669Z,2.67
2018-01-18T14:04:06.260Z,9.03
2018-01-18T14:06:34.822Z,4.80
2018-01-18T14:09:03.461Z,4.27
2018-01-18T14:11:32.249Z,3.77
2018-01-18T14:14:01.061Z,9.43
2018-01-18T14:16:29.793Z,6.90
2018-01-18T14:18:58.654Z,10.73
2018-01-18T14:21:27.352Z,6.00
2018-01-18T14:23:56.435Z,3.67
2018-01-18T14:26:25.052Z,7.53
2018-01-18T14:28:53.526Z,4.87
2018-01-18T14:31:23.143Z,2.97
2018-01-18T14:33:51.595Z,2.20
2018-01-18T14:36:20.513Z,3.77
2018-01-18T14:38:49.027Z,3.87
2018-01-18T14:41:18.082Z,6.70
2018-01-18T14:43:47.180Z,8.60
2018-01-18T14:46:15.945Z,2.03
2018-01-18T14:48:44.736Z,2.97
2018-01-18T14:51:14.433Z,1.27
2018-01-18T14:53:43.091Z,7.60
2018-01-18T14:56:11.628Z,7.53
2018-01-18T14:58:40.315Z,2.60
2018-01-18T15:01:08.815Z,3.23
2018-01-18T15:03:37.447Z,3.03
2018-01-18T15:06:06.576Z,1.40
2018-01-18T15:08:35.876Z,3.87
2018-01-18T15:11:04.526Z,12.40
2018-01-18T15:13:32.994Z,3.83
2018-01-18T15:16:01.495Z,1.17
2018-01-18T15:18:30.267Z,8.10
2018-01-18T15:20:58.785Z,3.53
2018-01-18T15:23:27.262Z,1.83
2018-01-18T15:25:55.855Z,5.23
2018-01-18T15:28:24.368Z,1.23
2018-01-18T15:30:52.917Z,1.20
2018-01-18T15:33:21.484Z,2.37
2018-01-18T15:35:49.968Z,1.53
2018-01-18T15:38:18.457Z,2.93
2018-01-18T15:40:47.137Z,1.27
2018-01-18T15:43:22.130Z,1.40
2018-01-18T15:45:50.702Z,4.13
2018-01-18T15:48:19.224Z,0.97
2018-01-18T15:50:47.764Z,1.37
2018-01-18T15:53:16.266Z,1.17
2018-01-18T15:55:44.799Z,1.23
2018-01-18T15:58:13.324Z,1.10
2018-01-18T16:00:41.961Z,1.90
2018-01-18T16:03:10.650Z,1.17
2018-01-18T16:05:39.311Z,5.83
2018-01-18T16:08:07.810Z,4.50
2018-01-18T16:10:36.463Z,2.40
2018-01-18T16:13:11.501Z,2.40
2018-01-18T16:15:40.224Z,1.63
2018-01-18T16:18:08.723Z,1.27
2018-01-18T16:20:37.568Z,0.90
2018-01-18T16:23:06.250Z,1.00
2018-01-18T16:25:35.188Z,4.07
2018-01-18T16:28:03.853Z,1.30
2018-01-18T16:30:32.701Z,1.57
2018-01-18T16:33:01.633Z,1.20
2018-01-18T16:35:30.367Z,1.10
2018-01-18T16:37:58.988Z,2.67
2018-01-18T16:40:27.525Z,1.00
2018-01-18T16:42:56.003Z,1.00
2018-01-18T16:45:24.620Z,0.90
2018-01-18T16:47:53.313Z,1.10
2018-01-18T16:50:21.858Z,1.80
2018-01-18T16:52:50.336Z,1.80
2018-01-18T16:55:18.843Z,0.90
2018-01-18T16:57:48.444Z,1.00
2018-01-18T17:00:16.956Z,0.70
2018-01-18T17:02:45.616Z,1.50
2018-01-18T17:05:14.138Z,0.80
2018-01-18T17:07:42.807Z,0.80
2018-01-18T17:10:11.409Z,0.83
2018-01-18T17:12:39.923Z,0.70
2018-01-18T17:15:08.631Z,0.83
2018-01-18T17:17:37.354Z,2.13
2018-01-18T17:20:06.923Z,0.90
2018-01-18T17:22:35.391Z,1.00
2018-01-18T17:25:03.943Z,0.70
2018-01-18T17:27:32.436Z,1.50
2018-01-18T17:30:01.299Z,1.37
2018-01-18T17:32:30.044Z,1.23
2018-01-18T17:34:58.726Z,1.10
2018-01-18T17:37:27.216Z,1.10
2018-01-18T17:39:55.729Z,1.20
2018-01-18T17:42:24.392Z,1.00
2018-01-18T17:44:53.050Z,1.47
2018-01-18T17:47:21.593Z,1.33
2018-01-18T17:49:50.274Z,1.30
2018-01-18T17:52:18.932Z,1.63
2018-01-18T17:54:47.415Z,2.07
2018-01-18T17:57:15.917Z,1.77
2018-01-18T17:59:45.571Z,1.80
2018-01-18T18:02:14.049Z,1.97
2018-01-18T18:04:42.579Z,1.97
2018-01-18T18:07:11.084Z,1.63
2018-01-18T18:09:41.396Z,1.73
2018-01-18T18:12:10.082Z,2.03
2018-01-18T18:14:38.540Z,1.93
2018-01-18T18:17:07.433Z,2.00
2018-01-18T18:19:36.144Z,2.07
2018-01-18T18:22:04.788Z,1.87
2018-01-18T18:24:33.589Z,2.20
2018-01-18T18:27:02.403Z,2.13
2018-01-18T18:29:31.233Z,2.23
2018-01-18T18:32:00.531Z,2.20
2018-01-18T18:34:29.012Z,3.07
2018-01-18T18:36:57.784Z,1.93
2018-01-18T18:39:26.629Z,2.27
2018-01-18T18:41:55.536Z,2.30
2018-01-18T18:44:24.149Z,4.07
2018-01-18T18:46:54.409Z,2.27
2018-01-18T18:49:24.657Z,1.97
2018-01-18T18:51:53.969Z,3.13
2018-01-18T18:54:23.746Z,1.47
2018-01-18T18:56:54.123Z,2.10
2018-01-18T18:59:22.888Z,1.97
2018-01-18T19:01:51.567Z,2.27
2018-01-18T19:04:20.064Z,1.97
2018-01-18T19:06:49.364Z,2.00
2018-01-18T19:09:19.055Z,2.00
2018-01-18T19:11:49.623Z,2.23
2018-01-18T19:14:19.078Z,2.00
2018-01-18T19:16:47.889Z,2.53
2018-01-18T19:19:23.180Z,1.90
2018-01-18T19:21:52.734Z,1.87
2018-01-18T19:24:22.192Z,2.07
2018-01-18T19:26:50.780Z,2.17
2018-01-18T19:29:19.566Z,2.20
2018-01-18T19:31:48.295Z,1.57
2018-01-18T19:34:17.217Z,2.83
2018-01-18T19:36:45.873Z,1.70
2018-01-18T19:39:14.480Z,1.30
2018-01-18T19:41:43.163Z,2.13
2018-01-18T19:44:11.650Z,1.70
2018-01-18T19:46:40.240Z,1.80
2018-01-18T19:49:08.812Z,1.50
2018-01-18T19:51:37.432Z,1.83
2018-01-18T19:54:06.058Z,1.80
2018-01-18T19:56:34.612Z,1.87
2018-01-18T19:59:03.571Z,2.20
2018-01-18T20:01:32.496Z,1.80
2018-01-18T20:04:00.943Z,1.47
2018-01-18T20:06:29.678Z,1.43
2018-01-18T20:08:58.173Z,2.00
2018-01-18T20:11:26.811Z,1.73
2018-01-18T20:13:55.305Z,1.70
2018-01-18T20:16:24.044Z,1.93
2018-01-18T20:18:52.788Z,1.43
2018-01-18T20:21:21.363Z,2.00
2018-01-18T20:23:50.029Z,1.23
2018-01-18T20:26:18.765Z,2.20
2018-01-18T20:28:47.425Z,1.40
2018-01-18T20:31:15.934Z,1.60
2018-01-18T20:33:44.427Z,2.07
2018-01-18T20:36:12.995Z,1.30
2018-01-18T20:38:41.788Z,2.00
2018-01-18T20:41:10.324Z,7.00
2018-01-18T20:43:38.913Z,2.37
2018-01-18T20:46:07.632Z,2.43
2018-01-18T20:48:37.096Z,2.03
2018-01-18T20:51:05.607Z,2.07
2018-01-18T20:53:34.104Z,2.33
2018-01-18T20:56:02.748Z,2.20
2018-01-18T20:58:31.732Z,2.77
2018-01-18T21:01:00.429Z,1.90
2018-01-18T21:03:28.906Z,2.73
2018-01-18T21:05:57.581Z,2.00
2018-01-18T21:08:26.218Z,2.00
2018-01-18T21:10:54.760Z,2.10
2018-01-18T21:13:23.258Z,2.43
2018-01-18T21:15:51.735Z,2.23
2018-01-18T21:18:20.278Z,3.60
2018-01-18T21:20:48.771Z,3.50
2018-01-18T21:23:17.512Z,4.20
2018-01-18T21:25:46.198Z,2.33
2018-01-18T21:28:14.740Z,3.23
2018-01-18T21:30:43.250Z,1.83
2018-01-18T21:33:11.774Z,3.10
2018-01-18T21:35:40.352Z,3.07
2018-01-18T21:38:08.807Z,2.00
2018-01-18T21:40:37.337Z,2.10
2018-01-18T21:43:05.773Z,2.77
2018-01-18T21:45:34.240Z,4.10
2018-01-18T21:48:02.990Z,1.70
2018-01-18T21:50:31.539Z,4.97
2018-01-18T21:53:00.009Z,1.57
2018-01-18T21:55:28.506Z,2.07
2018-01-18T21:57:57.404Z,2.97
2018-01-18T22:00:25.953Z,2.50
2018-01-18T22:02:55.253Z,4.50
2018-01-18T22:05:23.823Z,3.10
2018-01-18T22:07:52.395Z,4.50
2018-01-18T22:10:20.868Z,3.80
2018-01-18T22:12:49.391Z,3.73
2018-01-18T22:15:17.880Z,3.77
2018-01-18T22:17:46.919Z,8.57
2018-01-18T22:20:15.439Z,2.77
2018-01-18T22:22:44.052Z,3.70
2018-01-18T22:25:12.544Z,6.80
2018-01-18T22:27:41.270Z,4.50
2018-01-18T22:30:09.975Z,5.17
2018-01-18T22:32:40.252Z,3.40
2018-01-18T22:35:08.932Z,4.30
2018-01-18T22:37:37.672Z,3.70
2018-01-18T22:40:06.959Z,4.27
2018-01-18T22:42:35.467Z,3.70
2018-01-18T22:45:04.032Z,5.50
2018-01-18T22:47:32.563Z,3.80
2018-01-18T22:50:01.202Z,3.87
2018-01-18T22:52:30.232Z,4.80
2018-01-18T22:54:58.747Z,5.27
2018-01-18T22:57:27.471Z,3.93
2018-01-18T22:59:56.325Z,4.40
2018-01-18T23:02:24.825Z,4.53
2018-01-18T23:04:53.439Z,4.40
2018-01-18T23:07:21.905Z,8.67
2018-01-18T23:09:50.407Z,5.00
2018-01-18T23:12:18.924Z,5.90
2018-01-18T23:14:53.900Z,5.67
2018-01-18T23:17:22.443Z,5.40
2018-01-18T23:19:51.090Z,5.77
2018-01-18T23:22:19.716Z,5.90
2018-01-18T23:24:48.156Z,5.03
2018-01-18T23:27:16.656Z,6.13
2018-01-18T23:29:45.251Z,5.17
2018-01-18T23:32:13.835Z,5.00
2018-01-18T23:34:42.324Z,6.70
2018-01-18T23:37:10.892Z,5.17
2018-01-18T23:39:39.349Z,5.47
2018-01-18T23:42:07.875Z,5.27
2018-01-18T23:44:36.548Z,4.80
2018-01-18T23:47:05.136Z,6.53
2018-01-18T23:49:33.733Z,5.63
2018-01-18T23:52:02.572Z,6.77
2018-01-18T23:54:31.118Z,6.57
2018-01-18T23:56:59.789Z,5.40
2018-01-18T23:59:28.247Z,9.00
